createdAt,value
2022-10-18T00:01:07.883Z,63.86
2022-10-18T00:06:15.681Z,63.90
2022-10-18T00:08:43.743Z,63.91
2022-10-18T00:11:11.966Z,64.28
2022-10-18T00:13:40.069Z,64.29
2022-10-18T00:16:12.237Z,64.13
2022-10-18T00:18:39.999Z,64.40
2022-10-18T00:21:11.544Z,64.36
2022-10-18T00:23:40.584Z,64.58
2022-10-18T00:26:27.049Z,64.52
2022-10-18T00:29:00.445Z,64.71
2022-10-18T00:31:32.440Z,64.94
2022-10-18T00:34:14.177Z,64.80
2022-10-18T00:36:43.087Z,64.96
2022-10-18T00:39:18.940Z,65.08
2022-10-18T00:41:49.406Z,65.04
2022-10-18T00:44:33.144Z,65.10
2022-10-18T00:47:07.377Z,64.97
2022-10-18T00:49:44.418Z,65.00
2022-10-18T00:52:23.062Z,64.91
2022-10-18T00:54:52.407Z,65.15
2022-10-18T00:57:20.301Z,65.17
2022-10-18T00:59:48.411Z,65.19
2022-10-18T01:02:19.038Z,65.07
2022-10-18T01:04:48.317Z,65.26
2022-10-18T01:07:35.640Z,65.22
2022-10-18T01:10:03.683Z,65.23
2022-10-18T01:12:34.730Z,65.22
2022-10-18T01:15:11.955Z,65.43
2022-10-18T01:18:19.264Z,65.36
2022-10-18T01:21:10.259Z,65.45
2022-10-18T01:23:59.969Z,65.54
2022-10-18T01:26:53.877Z,65.45
2022-10-18T01:29:41.471Z,65.52
2022-10-18T01:32:20.780Z,65.73
2022-10-18T01:34:54.101Z,65.83
2022-10-18T01:37:22.639Z,65.90
2022-10-18T01:39:54.454Z,65.95
2022-10-18T01:42:22.684Z,65.86
2022-10-18T01:44:53.530Z,65.80
2022-10-18T01:47:21.811Z,65.61
2022-10-18T01:49:49.626Z,65.65
2022-10-18T01:52:17.574Z,65.66
2022-10-18T01:54:50.904Z,65.67
2022-10-18T01:57:29.511Z,65.69
2022-10-18T02:00:12.809Z,65.97
2022-10-18T02:02:49.408Z,66.26
2022-10-18T02:05:40.918Z,66.33
2022-10-18T02:08:27.447Z,66.39
2022-10-18T02:11:14.038Z,66.35
2022-10-18T02:13:44.560Z,66.29
2022-10-18T02:16:17.410Z,66.27
2022-10-18T02:19:08.238Z,66.23
2022-10-18T02:21:39.072Z,66.15
2022-10-18T02:24:10.015Z,66.06
2022-10-18T02:26:38.116Z,66.14
2022-10-18T02:29:06.045Z,66.11
2022-10-18T02:31:47.675Z,66.18
2022-10-18T02:34:24.423Z,66.38
2022-10-18T02:36:57.634Z,66.51
2022-10-18T02:39:33.447Z,66.52
2022-10-18T02:42:07.073Z,66.50
2022-10-18T02:44:39.191Z,66.22
2022-10-18T02:47:11.188Z,66.14
2022-10-18T02:49:39.077Z,66.06
2022-10-18T02:52:06.970Z,66.32
2022-10-18T02:54:36.848Z,66.33
2022-10-18T02:57:06.442Z,66.32
2022-10-18T02:59:35.577Z,66.27
2022-10-18T03:02:03.767Z,66.25
2022-10-18T03:04:51.600Z,66.32
2022-10-18T03:07:19.554Z,66.31
2022-10-18T03:09:50.029Z,66.21
2022-10-18T03:12:18.193Z,66.15
2022-10-18T03:14:46.154Z,66.07
2022-10-18T03:17:14.641Z,65.95
2022-10-18T03:19:45.423Z,65.97
2022-10-18T03:22:13.405Z,65.91
2022-10-18T03:24:43.786Z,65.92
2022-10-18T03:27:11.631Z,66.09
2022-10-18T03:29:40.619Z,66.17
2022-10-18T03:32:08.740Z,66.42
2022-10-18T03:34:36.513Z,66.61
2022-10-18T03:37:06.638Z,66.74
2022-10-18T03:39:34.595Z,66.54
2022-10-18T03:42:02.848Z,66.37
2022-10-18T03:44:30.622Z,66.60
2022-10-18T03:46:58.436Z,66.77
2022-10-18T03:49:29.984Z,66.85
2022-10-18T03:51:58.085Z,66.80
2022-10-18T03:54:26.282Z,66.72
2022-10-18T03:57:00.831Z,66.71
2022-10-18T03:59:31.639Z,66.78
2022-10-18T04:02:00.139Z,66.92
2022-10-18T04:04:31.076Z,66.66
2022-10-18T04:06:59.330Z,66.71
2022-10-18T04:25:32.505Z,66.62
2022-10-18T04:28:00.718Z,66.73
2022-10-18T04:30:30.721Z,66.69
2022-10-18T04:32:58.794Z,67.05
2022-10-18T04:35:28.378Z,67.14
2022-10-18T04:38:00.232Z,67.03
2022-10-18T04:40:28.377Z,67.26
2022-10-18T04:42:59.050Z,67.20
2022-10-18T04:45:27.260Z,67.28
2022-10-18T04:47:55.659Z,67.29
2022-10-18T04:50:34.899Z,67.13
2022-10-18T04:53:20.917Z,67.14
2022-10-18T04:55:50.983Z,67.34
2022-10-18T04:58:21.308Z,67.50
2022-10-18T05:00:50.606Z,67.30
2022-10-18T05:03:20.178Z,67.86
2022-10-18T05:06:03.934Z,68.44
2022-10-18T05:08:33.774Z,67.70
2022-10-18T05:11:02.649Z,67.45
2022-10-18T05:13:33.558Z,66.79
2022-10-18T05:16:36.651Z,66.90
2022-10-18T05:19:05.868Z,67.12
2022-10-18T05:21:36.363Z,67.11
2022-10-18T05:24:09.206Z,67.02
2022-10-18T05:26:40.777Z,67.03
2022-10-18T05:29:13.194Z,66.89
2022-10-18T05:31:41.491Z,66.65
2022-10-18T05:34:09.878Z,66.69
2022-10-18T05:36:37.823Z,66.82
2022-10-18T05:39:09.834Z,66.63
2022-10-18T05:41:41.183Z,66.52
2022-10-18T05:44:11.522Z,66.81
2022-10-18T05:57:12.775Z,66.97
2022-10-18T05:59:41.033Z,66.96
2022-10-18T06:02:16.549Z,66.98
2022-10-18T06:04:50.950Z,67.95
2022-10-18T06:07:20.523Z,68.18
2022-10-18T06:10:02.020Z,68.83
2022-10-18T06:12:32.611Z,69.50
2022-10-18T06:15:00.431Z,70.06
2022-10-18T06:22:05.374Z,69.47
2022-10-18T06:24:40.986Z,69.24
2022-10-18T06:27:10.222Z,68.00
2022-10-18T06:29:40.713Z,68.92
2022-10-18T06:32:23.866Z,69.02
2022-10-18T06:34:53.975Z,68.86
2022-10-18T06:37:22.158Z,68.44
2022-10-18T06:39:53.430Z,67.97
2022-10-18T06:42:24.091Z,67.75
2022-10-18T06:44:52.079Z,67.76
2022-10-18T06:47:25.371Z,68.01
2022-10-18T06:49:53.175Z,67.93
2022-10-18T06:52:25.632Z,67.77
2022-10-18T06:54:55.953Z,67.70
2022-10-18T06:57:23.830Z,67.34
2022-10-18T06:59:51.991Z,67.31
2022-10-18T07:02:20.007Z,67.45
2022-10-18T07:04:48.027Z,67.11
2022-10-18T07:07:18.291Z,67.44
2022-10-18T07:09:50.768Z,67.25
2022-10-18T07:12:23.301Z,67.37
2022-10-18T07:14:54.720Z,67.13
2022-10-18T07:17:25.433Z,67.09
2022-10-18T07:19:53.464Z,66.89
2022-10-18T07:22:21.519Z,66.90
2022-10-18T07:24:49.535Z,66.90
2022-10-18T07:27:17.590Z,66.74
2022-10-18T07:29:57.051Z,66.33
2022-10-18T07:32:32.227Z,65.71
2022-10-18T07:35:07.136Z,65.39
2022-10-18T07:37:50.966Z,64.83
2022-10-18T07:40:20.424Z,64.68
2022-10-18T07:42:52.885Z,64.54
2022-10-18T07:45:25.218Z,63.41
2022-10-18T07:48:21.475Z,63.03
2022-10-18T07:51:12.697Z,62.05
2022-10-18T07:53:41.324Z,61.36
2022-10-18T07:56:38.750Z,60.98
2022-10-18T07:59:07.063Z,60.44
2022-10-18T08:01:36.609Z,60.10
2022-10-18T08:04:27.436Z,59.19
2022-10-18T08:07:00.326Z,58.97
2022-10-18T08:09:32.427Z,58.36
2022-10-18T08:12:00.964Z,58.18
2022-10-18T08:14:31.282Z,57.27
2022-10-18T08:17:03.858Z,56.74
2022-10-18T08:19:33.270Z,56.40
2022-10-18T08:22:07.617Z,56.06
2022-10-18T08:24:40.162Z,55.54
2022-10-18T08:27:08.336Z,54.21
2022-10-18T08:29:36.569Z,54.66
2022-10-18T08:32:12.579Z,54.23
2022-10-18T08:34:42.041Z,53.56
2022-10-18T08:37:11.072Z,53.52
2022-10-18T08:39:38.953Z,53.14
2022-10-18T08:42:44.442Z,52.89
2022-10-18T08:45:29.752Z,52.71
2022-10-18T08:48:01.742Z,52.75
2022-10-18T08:50:35.508Z,51.79
2022-10-18T08:53:23.655Z,51.22
2022-10-18T08:56:14.704Z,51.24
2022-10-18T08:58:46.517Z,51.40
2022-10-18T09:01:18.612Z,50.46
2022-10-18T09:04:16.159Z,50.63
2022-10-18T09:06:54.275Z,50.74
2022-10-18T09:09:44.054Z,50.73
2022-10-18T09:12:30.063Z,50.81
2022-10-18T09:15:17.334Z,51.11
2022-10-18T09:18:13.791Z,50.83
2022-10-18T09:20:58.270Z,51.03
2022-10-18T09:23:44.641Z,50.67
2022-10-18T09:26:19.324Z,49.96
2022-10-18T09:29:03.430Z,50.00
2022-10-18T09:31:37.877Z,49.75
2022-10-18T09:34:13.536Z,48.97
2022-10-18T09:36:42.446Z,49.19
2022-10-18T09:39:13.032Z,49.14
2022-10-18T09:41:45.890Z,49.13
2022-10-18T09:44:51.404Z,49.42
2022-10-18T09:47:24.854Z,49.89
2022-10-18T09:49:58.495Z,50.28
2022-10-18T09:52:39.809Z,50.82
2022-10-18T09:55:18.871Z,50.89
2022-10-18T09:57:50.501Z,51.01
2022-10-18T10:00:28.219Z,51.65
2022-10-18T10:02:59.869Z,52.21
2022-10-18T10:05:28.101Z,52.45
2022-10-18T10:08:02.609Z,52.31
2022-10-18T10:10:30.869Z,52.51
2022-10-18T10:13:05.784Z,52.57
2022-10-18T10:15:38.287Z,52.21
2022-10-18T10:18:38.702Z,52.07
2022-10-18T10:21:08.410Z,51.66
2022-10-18T10:23:38.861Z,51.73
2022-10-18T10:26:31.211Z,52.15
2022-10-18T10:29:02.840Z,52.29
2022-10-18T10:31:31.888Z,52.59
2022-10-18T10:34:05.424Z,52.74
2022-10-18T10:36:34.172Z,53.00
2022-10-18T10:39:19.382Z,53.23
2022-10-18T10:41:53.136Z,53.57
2022-10-18T10:44:51.601Z,53.56
2022-10-18T10:47:41.757Z,53.62
2022-10-18T10:50:19.510Z,53.76
2022-10-18T10:52:49.734Z,53.87
2022-10-18T10:55:37.630Z,54.02
2022-10-18T11:01:45.257Z,54.56
2022-10-18T11:04:29.442Z,55.04
2022-10-18T11:07:09.560Z,55.10
2022-10-18T11:10:18.777Z,55.66
2022-10-18T11:12:52.213Z,55.89
2022-10-18T11:15:56.257Z,56.11
2022-10-18T11:18:38.346Z,56.08
2022-10-18T11:21:20.140Z,56.12
2022-10-18T11:23:47.998Z,56.61
2022-10-18T11:26:27.060Z,56.63
2022-10-18T11:29:25.397Z,56.88
2022-10-18T11:32:12.517Z,56.94
2022-10-18T11:34:58.913Z,56.97
2022-10-18T11:37:47.581Z,57.26
2022-10-18T11:40:33.976Z,56.68
2022-10-18T11:43:34.448Z,56.79
2022-10-18T11:47:11.080Z,56.95
2022-10-18T11:50:11.718Z,57.06
2022-10-18T11:53:20.343Z,56.52
2022-10-18T11:56:00.260Z,56.66
2022-10-18T11:59:06.534Z,56.66
2022-10-18T12:01:40.872Z,56.81
2022-10-18T12:04:28.091Z,56.86
2022-10-18T12:07:00.735Z,57.27
2022-10-18T12:09:37.499Z,57.38
2022-10-18T12:12:11.681Z,57.35
2022-10-18T12:15:03.600Z,57.68
2022-10-18T12:17:43.918Z,57.63
2022-10-18T12:20:25.859Z,57.70
2022-10-18T12:23:01.631Z,57.67
2022-10-18T12:25:33.628Z,57.68
2022-10-18T12:28:39.052Z,57.72
2022-10-18T12:32:33.390Z,57.80
2022-10-18T12:35:17.617Z,57.76
2022-10-18T12:37:57.617Z,57.41
2022-10-18T12:40:38.284Z,57.25
2022-10-18T12:43:17.385Z,57.02
2022-10-18T12:45:57.112Z,56.56
2022-10-18T12:48:37.710Z,55.60
2022-10-18T12:51:25.558Z,55.32
2022-10-18T12:54:16.809Z,55.21
2022-10-18T12:56:48.049Z,54.27
2022-10-18T12:59:20.442Z,52.93
2022-10-18T13:02:02.501Z,52.87
2022-10-18T13:05:01.541Z,52.07
2022-10-18T13:08:40.699Z,51.68
2022-10-18T13:14:13.278Z,51.34
2022-10-18T13:16:58.825Z,51.30
2022-10-18T13:20:20.438Z,51.09
2022-10-18T13:23:12.920Z,51.73
2022-10-18T13:26:04.100Z,52.04
2022-10-18T13:29:03.485Z,52.53
2022-10-18T13:31:50.662Z,53.57
2022-10-18T13:34:48.891Z,54.72
2022-10-18T13:37:24.886Z,56.06
2022-10-18T13:40:31.102Z,57.01
2022-10-18T13:43:43.923Z,59.18
2022-10-18T13:46:11.752Z,60.31
2022-10-18T13:48:39.518Z,62.43
2022-10-18T13:51:50.472Z,64.71
2022-10-18T13:54:30.308Z,66.11
2022-10-18T13:57:35.878Z,67.74
2022-10-18T14:00:24.943Z,68.19
2022-10-18T14:03:32.096Z,69.19
2022-10-18T14:06:05.204Z,71.80
2022-10-18T14:08:40.448Z,72.00
2022-10-18T14:11:30.132Z,72.52
2022-10-18T14:14:06.935Z,72.42
2022-10-18T14:16:40.434Z,72.17
2022-10-18T14:19:19.967Z,72.19
2022-10-18T14:22:17.024Z,72.22
2022-10-18T14:24:47.944Z,72.68
2022-10-18T14:27:22.782Z,72.77
2022-10-18T14:30:08.114Z,73.10
2022-10-18T14:32:36.407Z,72.74
2022-10-18T14:37:54.634Z,72.81
2022-10-18T14:40:41.159Z,73.03
2022-10-18T14:43:08.946Z,73.08
2022-10-18T14:45:37.926Z,72.88
2022-10-18T14:48:16.895Z,72.88
2022-10-18T14:50:47.241Z,72.88
2022-10-18T14:53:22.097Z,72.72
2022-10-18T14:56:00.657Z,72.63
2022-10-18T14:58:28.713Z,72.34
2022-10-18T15:00:57.333Z,72.12
2022-10-18T15:03:26.204Z,72.12
2022-10-18T15:06:01.675Z,71.97
2022-10-18T15:08:35.747Z,71.88
2022-10-18T15:11:24.972Z,71.89
2022-10-18T15:14:00.652Z,71.97
2022-10-18T15:16:31.076Z,72.11
2022-10-18T15:19:30.351Z,72.35
2022-10-18T15:22:30.140Z,72.37
2022-10-18T15:25:08.616Z,72.83
2022-10-18T15:27:38.540Z,73.08
2022-10-18T15:30:08.623Z,73.26
2022-10-18T15:33:05.346Z,73.16
2022-10-18T15:35:38.407Z,73.30
2022-10-18T15:38:24.083Z,73.34
2022-10-18T15:40:55.509Z,72.90
2022-10-18T15:43:23.245Z,72.63
2022-10-18T15:46:08.037Z,72.76
2022-10-18T15:48:42.217Z,72.80
2022-10-18T15:51:32.169Z,72.88
2022-10-18T15:54:00.162Z,72.90
2022-10-18T15:56:50.929Z,72.86
2022-10-18T15:59:27.949Z,72.67
2022-10-18T16:02:01.194Z,72.45
2022-10-18T16:04:30.890Z,72.45
2022-10-18T16:06:59.921Z,72.64
2022-10-18T16:09:28.833Z,72.63
2022-10-18T16:12:00.201Z,73.06
2022-10-18T16:14:28.572Z,73.44
2022-10-18T16:17:02.236Z,73.75
2022-10-18T16:19:31.193Z,74.38
2022-10-18T16:22:05.178Z,74.45
2022-10-18T16:24:35.433Z,74.68
2022-10-18T16:27:05.881Z,74.89
2022-10-18T16:29:33.806Z,74.97
2022-10-18T16:32:01.591Z,74.98
2022-10-18T16:34:32.685Z,75.00
2022-10-18T16:37:00.446Z,74.76
2022-10-18T16:39:29.937Z,74.77
2022-10-18T16:41:57.814Z,74.86
2022-10-18T16:44:25.578Z,74.53
2022-10-18T16:46:57.454Z,74.69
2022-10-18T16:49:26.414Z,74.82
2022-10-18T16:51:54.682Z,74.54
2022-10-18T16:54:24.530Z,74.45
2022-10-18T16:56:52.505Z,74.52
2022-10-18T16:59:31.513Z,74.52
2022-10-18T17:02:07.699Z,74.30
2022-10-18T17:04:37.630Z,74.38
2022-10-18T17:07:05.632Z,74.70
2022-10-18T17:09:34.920Z,74.54
2022-10-18T17:12:03.039Z,74.69
2022-10-18T17:14:33.262Z,74.72
2022-10-18T17:17:04.022Z,74.65
2022-10-18T17:19:31.871Z,74.81
2022-10-18T17:22:02.533Z,74.68
2022-10-18T17:24:38.686Z,75.04
2022-10-18T17:27:09.432Z,75.14
2022-10-18T17:29:37.350Z,75.37
2022-10-18T17:32:08.059Z,75.46
2022-10-18T17:34:38.592Z,75.67
2022-10-18T17:37:41.491Z,75.82
2022-10-18T17:40:19.700Z,76.14
2022-10-18T17:43:12.059Z,76.25
2022-10-18T17:45:55.144Z,76.13
2022-10-18T17:48:26.083Z,76.14
2022-10-18T17:50:56.542Z,76.05
2022-10-18T17:53:28.526Z,76.14
2022-10-18T17:56:03.524Z,75.99
2022-10-18T17:58:32.191Z,75.60
2022-10-18T18:01:14.551Z,75.57
2022-10-18T18:03:44.490Z,75.59
2022-10-18T18:06:32.608Z,75.61
2022-10-18T18:09:13.702Z,75.65
2022-10-18T18:11:48.261Z,75.50
2022-10-18T18:14:16.194Z,75.63
2022-10-18T18:16:46.096Z,75.42
2022-10-18T18:19:16.107Z,75.32
2022-10-18T18:21:46.302Z,75.30
2022-10-18T18:24:17.170Z,75.49
2022-10-18T18:26:49.081Z,75.39
2022-10-18T18:29:21.137Z,75.51
2022-10-18T18:31:54.025Z,75.50
2022-10-18T18:34:24.533Z,75.57
2022-10-18T18:36:53.676Z,75.68
2022-10-18T18:39:25.972Z,75.67
2022-10-18T18:41:57.922Z,75.56
2022-10-18T18:44:35.219Z,75.49
2022-10-18T18:47:15.558Z,75.65
2022-10-18T18:49:55.985Z,75.51
2022-10-18T18:52:37.273Z,75.64
2022-10-18T18:59:27.925Z,75.74
2022-10-18T19:02:08.064Z,75.91
2022-10-18T19:04:42.364Z,76.06
2022-10-18T19:07:12.898Z,76.79
2022-10-18T19:09:46.992Z,77.14
2022-10-18T19:12:25.462Z,77.19
2022-10-18T19:14:55.790Z,77.30
2022-10-18T19:17:23.630Z,77.30
2022-10-18T19:19:54.528Z,77.27
2022-10-18T19:22:30.983Z,76.92
2022-10-18T19:24:58.896Z,76.75
2022-10-18T19:27:30.480Z,76.74
2022-10-18T19:30:13.846Z,76.79
2022-10-18T19:32:56.887Z,76.65
2022-10-18T19:35:30.806Z,76.74
2022-10-18T19:38:01.378Z,76.57
2022-10-18T19:40:34.212Z,76.59
2022-10-18T19:43:03.636Z,76.34
2022-10-18T19:45:31.413Z,76.15
2022-10-18T19:47:59.202Z,76.27
2022-10-18T19:50:27.339Z,76.63
2022-10-18T19:52:55.113Z,76.84
2022-10-18T19:55:22.881Z,77.19
2022-10-18T19:57:51.795Z,77.30
2022-10-18T20:00:19.889Z,77.46
2022-10-18T20:02:47.718Z,77.54
2022-10-18T20:05:15.637Z,77.28
2022-10-18T20:07:45.278Z,77.39
2022-10-18T20:10:13.527Z,77.46
2022-10-18T20:12:44.411Z,77.75
2022-10-18T20:15:23.689Z,77.71
2022-10-18T20:17:56.179Z,77.94
2022-10-18T20:20:24.002Z,77.93
2022-10-18T20:22:53.509Z,77.67
2022-10-18T20:25:21.227Z,77.45
2022-10-18T20:27:49.690Z,77.38
2022-10-18T20:30:17.556Z,77.43
2022-10-18T20:32:45.345Z,77.46
2022-10-18T20:35:52.471Z,77.65
2022-10-18T20:38:59.529Z,78.00
2022-10-18T20:41:36.445Z,78.27
2022-10-18T20:44:11.683Z,78.17
2022-10-18T20:46:40.699Z,78.31
2022-10-18T20:49:19.965Z,78.06
2022-10-18T20:51:47.982Z,78.09
2022-10-18T20:54:15.738Z,78.06
2022-10-18T20:56:43.594Z,78.00
2022-10-18T20:59:11.592Z,78.02
2022-10-18T21:01:39.798Z,78.18
2022-10-18T21:04:09.689Z,78.30
2022-10-18T21:06:40.949Z,78.20
2022-10-18T21:09:12.229Z,78.43
2022-10-18T21:11:42.329Z,78.51
2022-10-18T21:14:13.348Z,78.53
2022-10-18T21:16:41.743Z,78.81
2022-10-18T21:19:12.873Z,78.87
2022-10-18T21:21:42.679Z,78.87
2022-10-18T21:24:11.521Z,79.02
2022-10-18T21:26:39.937Z,78.78
2022-10-18T21:29:08.248Z,78.91
2022-10-18T21:31:39.094Z,78.87
2022-10-18T21:34:12.825Z,78.84
2022-10-18T21:36:42.049Z,78.96
2022-10-18T21:39:15.294Z,79.02
2022-10-18T21:42:02.503Z,79.24
2022-10-18T21:44:40.736Z,79.31
2022-10-18T21:47:15.969Z,79.47
2022-10-18T21:53:32.488Z,79.40
2022-10-18T22:00:05.634Z,78.78
2022-10-18T22:02:34.853Z,78.70
2022-10-18T22:05:03.853Z,78.45
2022-10-18T22:07:33.948Z,78.17
2022-10-18T22:10:01.990Z,78.09
2022-10-18T22:12:29.740Z,77.99
2022-10-18T22:14:57.522Z,77.60
2022-10-18T22:17:25.513Z,77.65
2022-10-18T22:19:53.227Z,77.35
2022-10-18T22:22:21.075Z,77.21
2022-10-18T22:24:50.830Z,76.78
2022-10-18T22:27:20.865Z,76.67
2022-10-18T22:29:48.589Z,76.92
2022-10-18T22:32:16.352Z,77.19
2022-10-18T22:34:44.117Z,77.22
2022-10-18T22:37:11.860Z,77.27
2022-10-18T22:39:40.086Z,77.48
2022-10-18T22:42:07.962Z,77.58
2022-10-18T22:44:35.706Z,77.50
2022-10-18T22:47:03.501Z,77.61
2022-10-18T22:49:31.256Z,77.64
2022-10-18T22:51:58.983Z,77.64
2022-10-18T22:54:26.730Z,77.38
2022-10-18T22:56:54.968Z,77.40
2022-10-18T23:00:18.881Z,77.33
2022-10-18T23:03:23.278Z,76.81
2022-10-18T23:05:51.973Z,76.88
2022-10-18T23:08:19.815Z,76.47
2022-10-18T23:10:47.906Z,76.19
2022-10-18T23:13:15.642Z,76.03
2022-10-18T23:15:43.368Z,75.79
2022-10-18T23:18:11.127Z,76.08
2022-10-18T23:20:38.863Z,76.18
2022-10-18T23:23:06.976Z,76.42
2022-10-18T23:25:36.763Z,76.38
2022-10-18T23:28:05.525Z,76.07
2022-10-18T23:30:33.836Z,75.92
2022-10-18T23:33:01.636Z,75.88
2022-10-18T23:35:30.132Z,75.97
2022-10-18T23:37:57.868Z,75.89
2022-10-18T23:40:25.648Z,75.61
2022-10-18T23:42:53.780Z,75.71
2022-10-18T23:45:21.536Z,75.73
2022-10-18T23:47:49.276Z,76.07
2022-10-18T23:50:17.139Z,75.89
2022-10-18T23:52:44.845Z,75.71
2022-10-18T23:55:12.605Z,75.76
2022-10-18T23:57:40.368Z,75.82
